Weather at Brisbane Archerfield Airport

Public forecast

Using degrees Celsius for public forecast. Weather courtesy of forecast.io.

Closest aviation weather report (METAR) to Brisbane Archerfield Airport

Closest report is Brisbane International Airport, 12.6 nm (23.3 km) NNE. Retrieved 2021/10/19 14:00 UTC (10 minutes ago):

YBBN 191400Z 18006KT 9999 BKN021 19/17 Q1015

Closest aviation forecast (TAF) to Brisbane Archerfield Airport

Closest forecast is Brisbane International Airport, 12.6 nm (23.3 km) NNE. Retrieved 2021/10/19 15:00 UTC (0 seconds ago):

TAF YBBN 191416Z 1915/2018 19005KT 9999 BKN015 FM200000 03012KT 9999 SCT035 FM201200 02006KT 9999 BKN014 INTER 2004/2009 4000 SHRA BKN012 PROB30 TEMPO 2004/2009 VRB20G40KT 2000 TSRA BKN012 SCT030CB